createdAt,value
2023-05-14T00:01:43.601Z,7.70
2023-05-14T00:05:49.626Z,7.70
2023-05-14T00:09:54.298Z,7.80
2023-05-14T00:13:57.810Z,7.80
2023-05-14T00:18:01.633Z,7.80
2023-05-14T00:22:05.262Z,7.70
2023-05-14T00:26:09.957Z,7.80
2023-05-14T00:30:15.487Z,7.70
2023-05-14T00:34:19.124Z,7.70
2023-05-14T00:38:24.379Z,7.70
2023-05-14T00:42:29.206Z,7.70
2023-05-14T00:46:33.854Z,7.80
2023-05-14T00:50:37.403Z,7.70
2023-05-14T00:54:41.399Z,7.80
2023-05-14T00:58:46.540Z,7.80
2023-05-14T01:02:49.989Z,7.80
2023-05-14T01:07:04.770Z,7.80
2023-05-14T01:11:15.256Z,7.80
2023-05-14T01:15:23.236Z,7.90
2023-05-14T01:19:36.772Z,7.80
2023-05-14T01:23:41.539Z,7.80
2023-05-14T01:27:52.755Z,7.80
2023-05-14T01:31:58.746Z,7.80
2023-05-14T01:36:03.079Z,7.80
2023-05-14T01:40:10.266Z,7.80
2023-05-14T01:44:14.255Z,7.80
2023-05-14T01:48:17.813Z,7.80
2023-05-14T01:52:21.696Z,7.80
2023-05-14T01:56:27.187Z,7.70
2023-05-14T02:05:36.497Z,7.70
2023-05-14T02:09:41.172Z,7.70
2023-05-14T02:13:45.945Z,7.70
2023-05-14T02:17:50.866Z,7.70
2023-05-14T02:21:54.930Z,7.70
2023-05-14T02:26:05.902Z,7.70
2023-05-14T02:30:12.781Z,7.60
2023-05-14T02:34:16.625Z,7.70
2023-05-14T02:38:20.009Z,7.70
2023-05-14T02:42:24.284Z,7.70
2023-05-14T02:46:29.659Z,7.70
2023-05-14T02:50:35.104Z,7.60
2023-05-14T02:54:38.776Z,7.70
2023-05-14T02:58:42.402Z,7.70
2023-05-14T03:02:47.363Z,7.60
2023-05-14T03:06:51.596Z,7.70
2023-05-14T03:10:56.360Z,7.70
2023-05-14T03:14:59.709Z,7.70
2023-05-14T03:19:04.869Z,7.60
2023-05-14T03:23:08.424Z,7.60
2023-05-14T03:27:11.972Z,7.50
2023-05-14T03:31:15.521Z,7.50
2023-05-14T03:35:20.688Z,7.50
2023-05-14T03:39:24.006Z,7.50
2023-05-14T03:43:27.328Z,7.50
2023-05-14T03:47:31.359Z,7.50
2023-05-14T03:51:40.019Z,7.40
2023-05-14T03:55:43.337Z,7.40
2023-05-14T03:59:48.178Z,7.40
2023-05-14T04:03:51.737Z,7.40
2023-05-14T04:07:58.285Z,7.30
2023-05-14T04:12:02.880Z,7.30
2023-05-14T04:16:07.643Z,7.30
2023-05-14T04:20:12.340Z,7.30
2023-05-14T04:24:18.454Z,7.30
2023-05-14T04:28:22.125Z,7.30
2023-05-14T04:32:25.802Z,7.30
2023-05-14T04:36:29.349Z,7.30
2023-05-14T04:40:34.304Z,7.40
2023-05-14T04:44:38.051Z,7.30
2023-05-14T04:48:42.027Z,7.30
2023-05-14T04:52:47.217Z,7.30
2023-05-14T04:56:51.997Z,7.40
2023-05-14T05:00:55.609Z,7.40
2023-05-14T05:04:59.057Z,7.40
2023-05-14T05:09:03.314Z,7.40
2023-05-14T05:13:13.922Z,7.30
2023-05-14T05:17:17.259Z,7.30
2023-05-14T05:21:20.848Z,7.40
2023-05-14T05:25:24.325Z,7.40
2023-05-14T05:29:30.390Z,7.40
2023-05-14T05:33:33.726Z,7.50
2023-05-14T05:37:38.241Z,7.40
2023-05-14T05:41:41.934Z,7.40
2023-05-14T05:45:47.178Z,7.50
2023-05-14T05:49:51.166Z,7.40
2023-05-14T05:53:54.499Z,7.50
2023-05-14T05:57:57.772Z,7.50
2023-05-14T06:02:03.777Z,7.40
2023-05-14T06:06:07.760Z,7.40
2023-05-14T06:10:11.422Z,7.40
2023-05-14T06:14:15.075Z,7.40
2023-05-14T06:18:19.858Z,7.50
2023-05-14T06:22:29.480Z,7.50
2023-05-14T06:26:37.978Z,7.40
2023-05-14T06:30:44.730Z,7.30
2023-05-14T06:34:50.376Z,7.30
2023-05-14T06:38:53.783Z,7.30
2023-05-14T06:42:58.128Z,7.30
2023-05-14T06:47:01.455Z,7.30
2023-05-14T06:51:06.598Z,7.40
2023-05-14T06:55:10.461Z,7.30
2023-05-14T06:59:14.033Z,7.30
2023-05-14T07:03:17.776Z,7.30
2023-05-14T07:07:22.516Z,7.40
2023-05-14T07:11:26.258Z,7.40
2023-05-14T07:15:29.852Z,7.50
2023-05-14T07:19:33.387Z,7.50
2023-05-14T07:23:38.491Z,7.50
2023-05-14T07:27:44.008Z,7.50
2023-05-14T07:31:47.614Z,7.50
2023-05-14T07:35:54.176Z,7.60
2023-05-14T07:39:58.936Z,7.50
2023-05-14T07:44:05.128Z,7.40
2023-05-14T07:48:08.711Z,7.50
2023-05-14T07:52:17.532Z,7.50
2023-05-14T07:56:22.877Z,7.50
2023-05-14T08:00:26.797Z,7.50
2023-05-14T08:04:31.697Z,7.40
2023-05-14T08:08:35.126Z,7.30
2023-05-14T08:12:40.157Z,7.40
2023-05-14T08:16:43.622Z,7.50
2023-05-14T08:20:49.204Z,7.40
2023-05-14T08:24:52.619Z,7.40
2023-05-14T08:28:58.558Z,7.50
2023-05-14T08:33:02.108Z,7.40
2023-05-14T08:37:05.915Z,7.60
2023-05-14T08:41:11.826Z,7.50
2023-05-14T08:45:21.409Z,7.50
2023-05-14T08:49:33.816Z,7.60
2023-05-14T08:53:38.317Z,7.60
2023-05-14T08:57:42.870Z,7.60
2023-05-14T09:01:49.728Z,7.50
2023-05-14T09:05:53.695Z,7.50
2023-05-14T09:09:57.618Z,7.50
2023-05-14T09:14:00.870Z,7.50
2023-05-14T09:18:07.188Z,7.50
2023-05-14T09:22:12.661Z,7.50
2023-05-14T09:26:19.102Z,7.60
2023-05-14T09:30:22.775Z,7.50
2023-05-14T09:34:29.189Z,7.50
2023-05-14T09:38:33.067Z,7.40
2023-05-14T09:42:36.753Z,7.40
2023-05-14T09:46:40.494Z,7.40
2023-05-14T09:50:45.927Z,7.50
2023-05-14T09:54:49.933Z,7.50
2023-05-14T09:58:55.130Z,7.60
2023-05-14T10:03:00.011Z,7.50
2023-05-14T10:07:05.146Z,7.50
2023-05-14T10:11:14.514Z,7.60
2023-05-14T10:15:21.320Z,7.50
2023-05-14T10:19:32.348Z,7.50
2023-05-14T10:23:38.312Z,7.40
2023-05-14T10:27:42.826Z,7.40
2023-05-14T10:31:48.211Z,7.40
2023-05-14T10:36:01.620Z,7.50
2023-05-14T10:40:08.478Z,7.50
2023-05-14T10:44:13.280Z,7.60
2023-05-14T10:48:16.706Z,7.50
2023-05-14T10:52:27.940Z,7.60
2023-05-14T10:56:32.638Z,7.60
2023-05-14T11:00:44.550Z,7.60
2023-05-14T11:05:00.269Z,7.60
2023-05-14T11:09:04.549Z,7.50
2023-05-14T11:13:13.042Z,7.60
2023-05-14T11:17:16.914Z,7.70
2023-05-14T11:21:20.615Z,7.60
2023-05-14T11:25:26.189Z,7.70
2023-05-14T11:29:33.205Z,7.60
2023-05-14T11:33:37.287Z,7.80
2023-05-14T11:37:44.931Z,7.80
2023-05-14T11:41:48.370Z,7.70
2023-05-14T11:45:54.402Z,7.80
2023-05-14T11:50:00.895Z,7.80
2023-05-14T11:54:04.988Z,7.90
2023-05-14T11:58:08.407Z,7.90
2023-05-14T12:02:19.464Z,8.00
2023-05-14T12:06:23.403Z,7.90
2023-05-14T12:10:27.161Z,7.80
2023-05-14T12:14:30.900Z,7.80
2023-05-14T12:18:35.745Z,7.90
2023-05-14T12:22:43.506Z,7.90
2023-05-14T12:26:48.086Z,7.90
2023-05-14T12:30:58.377Z,7.80
2023-05-14T12:35:03.802Z,7.90
2023-05-14T12:39:07.397Z,7.80
2023-05-14T12:43:11.748Z,7.80
2023-05-14T12:47:15.373Z,7.70
2023-05-14T12:51:20.176Z,7.80
2023-05-14T12:55:24.816Z,7.90
2023-05-14T12:59:28.133Z,7.90
2023-05-14T13:03:32.893Z,7.90
2023-05-14T13:07:37.813Z,7.90
2023-05-14T13:11:41.153Z,7.80
2023-05-14T13:15:46.820Z,7.80
2023-05-14T13:19:50.263Z,7.70
2023-05-14T13:23:56.121Z,7.70
2023-05-14T13:27:59.458Z,7.70
2023-05-14T13:32:03.033Z,7.70
2023-05-14T13:36:06.965Z,7.60
2023-05-14T13:40:13.285Z,7.60
2023-05-14T13:44:16.589Z,7.50
2023-05-14T13:48:20.211Z,7.60
2023-05-14T13:52:23.488Z,7.60
2023-05-14T13:56:28.432Z,7.70
2023-05-14T14:00:32.340Z,7.70
2023-05-14T14:04:36.852Z,7.60
2023-05-14T14:08:40.191Z,7.70
2023-05-14T14:12:48.891Z,7.70
2023-05-14T14:16:52.166Z,7.70
2023-05-14T14:20:55.835Z,7.80
2023-05-14T14:24:59.199Z,7.80
2023-05-14T14:29:04.190Z,7.80
2023-05-14T14:33:07.754Z,7.90
2023-05-14T14:37:11.414Z,7.90
2023-05-14T14:41:14.866Z,7.90
2023-05-14T14:45:19.866Z,7.80
2023-05-14T14:49:23.198Z,7.90
2023-05-14T14:53:26.625Z,7.90
2023-05-14T14:57:30.479Z,7.90
2023-05-14T15:01:35.793Z,7.90
2023-05-14T15:05:39.527Z,7.80
2023-05-14T15:09:42.936Z,7.90
2023-05-14T15:13:46.763Z,7.80
2023-05-14T15:17:51.557Z,7.70
2023-05-14T15:21:55.927Z,7.70
2023-05-14T15:25:59.209Z,7.80
2023-05-14T15:30:03.017Z,7.70
2023-05-14T15:34:07.741Z,7.90
2023-05-14T15:38:12.149Z,7.80
2023-05-14T15:42:15.598Z,7.80
2023-05-14T15:46:21.529Z,7.90
2023-05-14T15:50:27.469Z,7.80
2023-05-14T15:54:31.953Z,7.90
2023-05-14T15:58:35.432Z,7.90
2023-05-14T16:02:39.824Z,7.90
2023-05-14T16:06:45.374Z,7.70
2023-05-14T16:10:48.859Z,7.80
2023-05-14T16:14:52.441Z,7.80
2023-05-14T16:18:55.730Z,7.80
2023-05-14T16:23:01.485Z,7.80
2023-05-14T16:27:05.467Z,7.70
2023-05-14T16:31:13.982Z,7.70
2023-05-14T16:35:17.919Z,7.70
2023-05-14T16:39:24.934Z,7.80
2023-05-14T16:43:28.420Z,7.70
2023-05-14T16:47:33.208Z,7.70
2023-05-14T16:51:36.729Z,7.60
2023-05-14T16:55:41.628Z,7.70
2023-05-14T16:59:44.969Z,7.70
2023-05-14T17:03:48.311Z,7.70
2023-05-14T17:07:51.745Z,7.60
2023-05-14T17:11:56.713Z,7.60
2023-05-14T17:16:02.026Z,7.60
2023-05-14T17:20:06.889Z,7.60
2023-05-14T17:24:12.697Z,7.60
2023-05-14T17:28:17.448Z,7.60
2023-05-14T17:32:23.000Z,7.70
2023-05-14T17:36:28.626Z,7.70
2023-05-14T17:40:33.584Z,7.70
2023-05-14T17:44:38.365Z,7.70
2023-05-14T17:48:41.987Z,7.70
2023-05-14T17:52:46.232Z,7.70
2023-05-14T17:56:51.037Z,7.70
2023-05-14T18:00:55.900Z,7.70
2023-05-14T18:05:00.219Z,7.70
2023-05-14T18:09:03.800Z,7.70
2023-05-14T18:13:07.191Z,7.60
2023-05-14T18:17:12.334Z,7.70
2023-05-14T18:21:16.133Z,7.70
2023-05-14T18:25:19.918Z,7.70
2023-05-14T18:29:23.382Z,7.70
2023-05-14T18:33:28.393Z,7.60
2023-05-14T18:37:31.853Z,7.60
2023-05-14T18:41:35.395Z,7.70
2023-05-14T18:45:38.754Z,7.80
2023-05-14T18:49:44.063Z,7.70
2023-05-14T18:53:47.387Z,7.60
2023-05-14T18:57:51.581Z,7.70
2023-05-14T19:01:55.126Z,7.60
2023-05-14T19:06:00.012Z,7.60
2023-05-14T19:10:05.025Z,7.50
2023-05-14T19:14:09.482Z,7.60
2023-05-14T19:18:17.737Z,7.60
2023-05-14T19:22:22.516Z,7.50
2023-05-14T19:26:29.212Z,7.50
2023-05-14T19:30:32.567Z,7.60
2023-05-14T19:34:43.363Z,7.60
2023-05-14T19:38:48.359Z,7.60
2023-05-14T19:42:51.714Z,7.50
2023-05-14T19:46:55.583Z,7.50
2023-05-14T19:50:58.983Z,7.50
2023-05-14T19:55:05.369Z,7.60
2023-05-14T19:59:08.741Z,7.60
2023-05-14T20:03:13.758Z,7.60
2023-05-14T20:07:18.114Z,7.60
2023-05-14T20:11:22.984Z,7.60
2023-05-14T20:15:26.647Z,7.70
2023-05-14T20:19:29.985Z,7.60
2023-05-14T20:23:34.491Z,7.60
2023-05-14T20:27:39.608Z,7.60
2023-05-14T20:31:43.191Z,7.60
2023-05-14T20:35:46.738Z,7.60
2023-05-14T20:39:50.754Z,7.70
2023-05-14T20:43:55.627Z,7.60
2023-05-14T20:48:01.254Z,7.50
2023-05-14T20:52:04.841Z,7.60
2023-05-14T20:56:09.413Z,7.60
2023-05-14T21:00:15.340Z,7.60
2023-05-14T21:04:19.028Z,7.60
2023-05-14T21:08:22.446Z,7.50
2023-05-14T21:12:25.934Z,7.60
2023-05-14T21:16:31.895Z,7.50
2023-05-14T21:20:35.995Z,7.50
2023-05-14T21:24:39.887Z,7.50
2023-05-14T21:28:43.483Z,7.60
2023-05-14T21:32:48.329Z,7.60
2023-05-14T21:36:51.762Z,7.60
2023-05-14T21:40:55.201Z,7.50
2023-05-14T21:44:58.917Z,7.50
2023-05-14T21:49:03.831Z,7.60
2023-05-14T21:53:07.404Z,7.50
2023-05-14T21:57:11.071Z,7.50
2023-05-14T22:01:15.590Z,7.60
2023-05-14T22:05:20.623Z,7.50
2023-05-14T22:09:23.997Z,7.50
2023-05-14T22:13:28.642Z,7.50
2023-05-14T22:17:34.383Z,7.60
2023-05-14T22:21:39.609Z,7.60
2023-05-14T22:25:43.123Z,7.60
2023-05-14T22:29:50.884Z,7.60
2023-05-14T22:33:54.491Z,7.50
2023-05-14T22:38:01.387Z,7.50
2023-05-14T22:42:05.027Z,7.50
2023-05-14T22:46:08.419Z,7.50
2023-05-14T22:50:12.414Z,7.50
2023-05-14T22:54:17.631Z,7.40
2023-05-14T22:58:21.679Z,7.40
2023-05-14T23:02:25.091Z,7.50
2023-05-14T23:06:28.624Z,7.50
2023-05-14T23:10:35.704Z,7.50
2023-05-14T23:14:39.115Z,7.50
2023-05-14T23:18:42.987Z,7.50
2023-05-14T23:22:46.456Z,7.50
2023-05-14T23:26:51.619Z,7.50
2023-05-14T23:30:55.603Z,7.50
2023-05-14T23:34:59.497Z,7.50
2023-05-14T23:39:02.904Z,7.50
2023-05-14T23:43:07.719Z,7.50
2023-05-14T23:47:12.401Z,7.50
2023-05-14T23:51:15.624Z,7.50
2023-05-14T23:55:19.384Z,7.50
2023-05-14T23:59:24.106Z,7.60
